createdAt,value
2023-01-01T00:00:53.059Z,187.30
2023-01-01T00:03:22.417Z,174.45
2023-01-01T00:05:53.394Z,160.60
2023-01-01T00:08:22.474Z,133.02
2023-01-01T00:10:51.503Z,144.98
2023-01-01T00:13:20.584Z,152.27
2023-01-01T00:15:50.342Z,152.50
2023-01-01T00:18:19.419Z,142.35
2023-01-01T00:20:48.540Z,169.10
2023-01-01T00:23:19.014Z,155.30
2023-01-01T00:25:48.079Z,154.82
2023-01-01T00:28:17.245Z,158.95
2023-01-01T00:30:46.405Z,149.30
2023-01-01T00:33:15.589Z,135.98
2023-01-01T00:35:44.684Z,154.00
2023-01-01T00:38:13.746Z,126.18
2023-01-01T00:40:44.618Z,117.03
2023-01-01T00:43:13.846Z,120.28
2023-01-01T00:45:47.907Z,88.43
2023-01-01T00:48:17.075Z,81.95
2023-01-01T00:50:46.934Z,98.60
2023-01-01T00:53:16.495Z,78.18
2023-01-01T00:55:48.660Z,69.07
2023-01-01T00:58:19.864Z,82.28
2023-01-01T01:00:49.066Z,98.70
2023-01-01T01:03:29.076Z,103.60
2023-01-01T01:05:59.996Z,117.57
2023-01-01T01:08:31.318Z,104.32
2023-01-01T01:11:08.941Z,97.13
2023-01-01T01:13:39.080Z,95.55
2023-01-01T01:16:13.832Z,107.68
2023-01-01T01:18:43.742Z,115.15
2023-01-01T01:21:16.315Z,112.18
2023-01-01T01:23:45.453Z,107.18
2023-01-01T01:26:18.621Z,111.47
2023-01-01T01:28:49.938Z,105.93
2023-01-01T01:31:20.341Z,94.43
2023-01-01T01:33:51.235Z,91.20
2023-01-01T01:36:21.144Z,90.47
2023-01-01T01:38:50.580Z,92.10
2023-01-01T01:41:28.404Z,89.78
2023-01-01T01:44:02.251Z,81.40
2023-01-01T01:46:36.055Z,82.38
2023-01-01T01:49:15.565Z,95.80
2023-01-01T01:51:46.372Z,85.70
2023-01-01T01:54:20.658Z,94.45
2023-01-01T01:56:56.553Z,100.80
2023-01-01T01:59:32.223Z,97.90
2023-01-01T02:02:01.687Z,109.43
2023-01-01T02:04:31.357Z,122.18
2023-01-01T02:07:03.008Z,113.97
2023-01-01T02:09:32.537Z,116.93
2023-01-01T02:12:03.245Z,124.43
2023-01-01T02:14:33.382Z,131.10
2023-01-01T02:17:10.386Z,147.10
2023-01-01T02:19:56.598Z,153.95
2023-01-01T02:22:38.602Z,151.52
2023-01-01T02:25:21.099Z,137.35
2023-01-01T02:28:00.081Z,156.80
2023-01-01T02:30:33.138Z,137.55
2023-01-01T02:33:07.228Z,133.98
2023-01-01T02:35:42.629Z,133.13
2023-01-01T02:38:19.648Z,141.13
2023-01-01T02:40:51.793Z,130.25
2023-01-01T02:43:24.811Z,135.43
2023-01-01T02:45:56.593Z,137.63
2023-01-01T02:48:42.574Z,136.05
2023-01-01T02:51:24.562Z,126.30
2023-01-01T02:54:03.443Z,124.15
2023-01-01T02:56:43.373Z,125.72
2023-01-01T02:59:40.884Z,105.60
2023-01-01T03:02:24.738Z,107.97
2023-01-01T03:05:05.561Z,94.05
2023-01-01T03:07:50.889Z,94.75
2023-01-01T03:10:25.257Z,99.38
2023-01-01T03:12:58.119Z,99.40
2023-01-01T03:15:36.910Z,93.68
2023-01-01T03:18:14.913Z,80.40
2023-01-01T03:20:48.367Z,69.68
2023-01-01T03:23:23.421Z,96.43
2023-01-01T03:25:55.577Z,105.40
2023-01-01T03:28:29.608Z,117.50
2023-01-01T03:31:00.551Z,128.90
2023-01-01T03:33:35.925Z,127.15
2023-01-01T03:36:12.068Z,128.90
2023-01-01T03:38:46.294Z,119.97
2023-01-01T03:41:22.497Z,117.10
2023-01-01T03:43:57.602Z,124.03
2023-01-01T03:46:32.173Z,134.20
2023-01-01T03:49:05.493Z,139.27
2023-01-01T03:51:55.453Z,121.70
2023-01-01T03:54:40.269Z,118.68
2023-01-01T03:57:17.698Z,108.80
2023-01-01T03:59:57.702Z,101.70
2023-01-01T04:02:33.110Z,89.60
2023-01-01T04:05:07.538Z,100.07
2023-01-01T04:07:37.044Z,90.88
2023-01-01T04:10:17.454Z,100.13
2023-01-01T04:12:49.460Z,112.82
2023-01-01T04:15:20.746Z,106.10
2023-01-01T04:17:50.107Z,117.20
2023-01-01T04:20:21.738Z,125.18
2023-01-01T04:22:51.115Z,131.77
2023-01-01T04:25:20.329Z,134.63
2023-01-01T04:27:49.612Z,120.43
2023-01-01T04:30:19.490Z,119.88
2023-01-01T04:32:48.774Z,101.82
2023-01-01T04:35:18.143Z,110.35
2023-01-01T04:37:48.664Z,106.30
2023-01-01T04:40:17.932Z,105.22
2023-01-01T04:42:46.946Z,101.30
2023-01-01T04:45:16.194Z,100.40
2023-01-01T04:47:45.524Z,95.63
2023-01-01T04:50:14.850Z,91.72
2023-01-01T04:52:43.939Z,98.68
2023-01-01T04:55:14.481Z,89.07
2023-01-01T04:57:44.603Z,84.78
2023-01-01T05:00:14.716Z,82.43
2023-01-01T05:02:43.931Z,69.78
2023-01-01T05:05:13.174Z,72.97
2023-01-01T05:07:42.409Z,75.60
2023-01-01T05:10:12.915Z,95.93
2023-01-01T05:12:44.179Z,107.07
2023-01-01T05:15:13.253Z,92.13
2023-01-01T05:17:42.342Z,115.43
2023-01-01T05:20:12.337Z,109.43
2023-01-01T05:22:41.439Z,88.30
2023-01-01T05:25:11.037Z,96.07
2023-01-01T05:27:41.515Z,94.63
2023-01-01T05:30:11.783Z,86.13
2023-01-01T05:32:40.869Z,88.38
2023-01-01T05:35:10.889Z,79.15
2023-01-01T05:37:40.102Z,95.38
2023-01-01T05:40:11.051Z,83.93
2023-01-01T05:42:41.518Z,79.75
2023-01-01T05:45:12.420Z,86.63
2023-01-01T05:47:41.576Z,91.80
2023-01-01T05:52:39.217Z,94.47
2023-01-01T05:55:09.634Z,94.40
2023-01-01T05:57:38.822Z,84.55
2023-01-01T06:00:11.352Z,85.80
2023-01-01T06:02:40.557Z,78.80
2023-01-01T06:05:10.836Z,86.07
2023-01-01T06:07:43.312Z,81.72
2023-01-01T06:12:46.065Z,89.30
2023-01-01T06:15:16.728Z,94.22
2023-01-01T06:17:45.811Z,94.25
2023-01-01T06:20:15.199Z,113.63
2023-01-01T06:22:44.280Z,106.28
2023-01-01T06:25:14.286Z,112.05
2023-01-01T06:27:43.562Z,102.43
2023-01-01T06:30:13.389Z,88.30
2023-01-01T06:32:43.986Z,88.53
2023-01-01T06:35:13.534Z,84.60
2023-01-01T06:37:42.724Z,86.70
2023-01-01T06:40:12.575Z,88.82
2023-01-01T06:42:41.721Z,81.75
2023-01-01T06:45:13.274Z,76.45
2023-01-01T06:47:43.913Z,79.45
2023-01-01T06:50:13.024Z,65.38
2023-01-01T06:52:42.200Z,59.40
2023-01-01T06:55:11.473Z,62.53
2023-01-01T06:57:40.634Z,63.33
2023-01-01T07:00:11.369Z,85.05
2023-01-01T07:02:40.545Z,82.35
2023-01-01T07:05:11.343Z,73.53
2023-01-01T07:07:41.242Z,66.45
2023-01-01T07:10:10.766Z,82.15
2023-01-01T07:12:39.990Z,76.00
2023-01-01T07:15:10.464Z,83.18
2023-01-01T07:17:39.780Z,89.45
2023-01-01T07:20:11.417Z,90.70
2023-01-01T07:22:42.487Z,83.90
2023-01-01T07:25:15.254Z,80.38
2023-01-01T07:27:44.478Z,77.88
2023-01-01T07:30:13.739Z,80.20
2023-01-01T07:32:42.854Z,76.97
2023-01-01T07:35:13.357Z,73.25
2023-01-01T07:37:42.473Z,72.53
2023-01-01T07:40:13.313Z,67.65
2023-01-01T07:42:42.365Z,72.93
2023-01-01T07:45:13.713Z,68.22
2023-01-01T07:47:42.885Z,77.75
2023-01-01T07:50:18.995Z,68.90
2023-01-01T07:52:48.067Z,66.80
2023-01-01T07:55:19.915Z,63.13
2023-01-01T07:57:49.962Z,64.55
2023-01-01T08:00:21.847Z,61.60
2023-01-01T08:02:51.496Z,59.20
2023-01-01T08:05:26.618Z,62.58
2023-01-01T08:07:56.679Z,61.20
2023-01-01T08:10:25.810Z,57.25
2023-01-01T08:13:01.639Z,64.78
2023-01-01T08:15:31.265Z,64.20
2023-01-01T08:18:01.794Z,64.75
2023-01-01T08:20:33.801Z,58.63
2023-01-01T08:23:07.321Z,59.20
2023-01-01T08:25:36.761Z,58.50
2023-01-01T08:28:06.418Z,56.83
2023-01-01T08:30:35.504Z,53.10
2023-01-01T08:33:04.680Z,53.85
2023-01-01T08:35:37.349Z,54.08
2023-01-01T08:38:06.420Z,60.10
2023-01-01T08:40:36.739Z,54.10
2023-01-01T08:43:05.813Z,56.10
2023-01-01T08:45:35.055Z,56.00
2023-01-01T08:48:04.249Z,65.30
2023-01-01T08:50:34.787Z,59.45
2023-01-01T08:53:04.356Z,60.80
2023-01-01T08:55:33.506Z,55.60
2023-01-01T08:58:02.577Z,53.78
2023-01-01T09:00:31.668Z,52.75
2023-01-01T09:03:01.041Z,50.92
2023-01-01T09:05:30.249Z,54.10
2023-01-01T09:08:00.726Z,50.33
2023-01-01T09:10:29.914Z,53.95
2023-01-01T09:12:58.993Z,53.72
2023-01-01T09:15:28.219Z,60.30
2023-01-01T09:17:57.266Z,59.00
2023-01-01T09:20:26.563Z,57.58
2023-01-01T09:22:59.675Z,49.20
2023-01-01T09:25:34.811Z,54.10
2023-01-01T09:28:06.528Z,55.42
2023-01-01T09:30:36.540Z,53.50
2023-01-01T09:33:06.031Z,53.85
2023-01-01T09:35:36.408Z,59.63
2023-01-01T09:38:05.581Z,53.17
2023-01-01T09:40:51.487Z,49.13
2023-01-01T09:43:37.751Z,46.60
2023-01-01T09:46:11.207Z,49.30
2023-01-01T09:48:50.224Z,47.08
2023-01-01T09:51:20.979Z,50.33
2023-01-01T09:53:56.495Z,44.97
2023-01-01T09:56:29.657Z,46.25
2023-01-01T09:59:00.379Z,46.85
2023-01-01T10:01:44.048Z,46.13
2023-01-01T10:04:29.517Z,47.95
2023-01-01T10:07:09.592Z,46.17
2023-01-01T10:09:51.981Z,45.45
2023-01-01T10:12:31.723Z,43.85
2023-01-01T10:15:12.592Z,41.67
2023-01-01T10:17:47.101Z,39.95
2023-01-01T10:20:24.102Z,36.80
2023-01-01T10:23:01.077Z,37.17
2023-01-01T10:25:35.209Z,35.42
2023-01-01T10:28:08.705Z,33.08
2023-01-01T10:30:38.123Z,39.33
2023-01-01T10:33:14.143Z,37.95
2023-01-01T10:35:48.810Z,34.80
2023-01-01T10:38:24.770Z,35.75
2023-01-01T10:40:57.416Z,36.00
2023-01-01T10:43:28.015Z,32.50
2023-01-01T10:45:57.734Z,33.25
2023-01-01T10:48:28.630Z,33.65
2023-01-01T10:51:00.529Z,32.03
2023-01-01T10:53:34.300Z,33.10
2023-01-01T10:56:08.706Z,35.92
2023-01-01T10:58:46.544Z,28.13
2023-01-01T11:01:24.888Z,29.65
2023-01-01T11:04:00.183Z,37.22
2023-01-01T11:06:34.014Z,27.75
2023-01-01T11:09:08.375Z,29.42
2023-01-01T11:11:44.241Z,28.52
2023-01-01T11:14:23.122Z,30.08
2023-01-01T11:16:52.986Z,27.73
2023-01-01T11:19:28.966Z,25.70
2023-01-01T11:21:58.129Z,29.70
2023-01-01T11:24:29.535Z,27.13
2023-01-01T11:27:19.316Z,24.83
2023-01-01T11:29:51.509Z,21.73
2023-01-01T11:32:25.694Z,26.60
2023-01-01T11:35:01.280Z,22.63
2023-01-01T11:37:34.032Z,26.35
2023-01-01T11:40:06.063Z,24.55
2023-01-01T11:42:38.492Z,27.25
2023-01-01T11:45:20.317Z,26.65
2023-01-01T11:47:56.348Z,24.95
2023-01-01T11:50:31.276Z,27.50
2023-01-01T11:53:21.195Z,23.88
2023-01-01T11:55:56.372Z,22.75
2023-01-01T11:58:33.727Z,22.65
2023-01-01T12:01:11.262Z,26.25
2023-01-01T12:03:46.395Z,25.17
2023-01-01T12:06:22.170Z,25.52
2023-01-01T12:08:59.405Z,31.58
2023-01-01T12:11:36.154Z,27.83
2023-01-01T12:14:16.747Z,24.55
2023-01-01T12:16:56.486Z,32.35
2023-01-01T12:19:32.281Z,26.23
2023-01-01T12:22:02.512Z,24.02
2023-01-01T12:24:35.750Z,28.35
2023-01-01T12:27:18.686Z,26.83
2023-01-01T12:30:11.932Z,24.52
2023-01-01T12:33:08.200Z,25.77
2023-01-01T12:35:55.024Z,24.10
2023-01-01T12:38:46.048Z,27.33
2023-01-01T12:41:27.856Z,24.25
2023-01-01T12:44:08.815Z,23.98
2023-01-01T12:47:02.206Z,23.90
2023-01-01T12:49:54.605Z,22.52
2023-01-01T12:52:41.481Z,22.83
2023-01-01T12:55:54.231Z,23.73
2023-01-01T12:58:29.362Z,20.90
2023-01-01T13:01:04.166Z,25.50
2023-01-01T13:03:38.774Z,26.23
2023-01-01T13:06:16.340Z,23.45
2023-01-01T13:08:53.375Z,24.60
2023-01-01T13:11:27.463Z,20.90
2023-01-01T13:13:57.166Z,22.63
2023-01-01T13:16:38.781Z,22.95
2023-01-01T13:19:08.633Z,22.90
2023-01-01T13:21:40.054Z,22.90
2023-01-01T13:24:23.361Z,24.05
2023-01-01T13:26:53.637Z,20.48
2023-01-01T13:29:35.190Z,21.77
2023-01-01T13:32:07.749Z,22.02
2023-01-01T13:35:03.449Z,19.45
2023-01-01T13:37:51.891Z,18.98
2023-01-01T13:40:50.270Z,19.10
2023-01-01T13:43:29.672Z,21.50
2023-01-01T13:46:14.868Z,19.38
2023-01-01T13:49:12.653Z,20.52
2023-01-01T13:52:05.880Z,18.57
2023-01-01T13:55:32.705Z,16.17
2023-01-01T13:58:46.945Z,17.52
2023-01-01T14:01:55.181Z,20.23
2023-01-01T14:04:38.507Z,17.92
2023-01-01T14:07:49.710Z,17.65
2023-01-01T14:10:32.415Z,15.75
2023-01-01T14:13:17.509Z,16.33
2023-01-01T14:15:55.512Z,18.73
2023-01-01T14:18:34.472Z,13.32
2023-01-01T14:21:09.040Z,9.90
2023-01-01T14:23:44.425Z,14.80
2023-01-01T14:26:19.681Z,12.18
2023-01-01T14:28:59.538Z,14.45
2023-01-01T14:31:32.271Z,12.88
2023-01-01T14:34:03.984Z,15.57
2023-01-01T14:36:33.662Z,11.73
2023-01-01T14:39:03.068Z,13.80
2023-01-01T14:41:36.755Z,11.35
2023-01-01T14:44:11.784Z,12.68
2023-01-01T14:46:42.910Z,17.80
2023-01-01T14:49:17.515Z,12.30
2023-01-01T14:51:55.250Z,11.50
2023-01-01T14:54:33.183Z,11.48
2023-01-01T14:57:04.873Z,14.25
2023-01-01T14:59:36.235Z,15.55
2023-01-01T15:02:16.157Z,15.23
2023-01-01T15:04:48.322Z,25.15
2023-01-01T15:07:23.591Z,22.95
2023-01-01T15:09:54.183Z,22.88
2023-01-01T15:12:25.327Z,19.70
2023-01-01T15:14:58.133Z,16.63
2023-01-01T15:17:28.887Z,16.20
2023-01-01T15:20:08.027Z,18.08
2023-01-01T15:22:40.036Z,19.27
2023-01-01T15:25:15.271Z,18.80
2023-01-01T15:27:50.931Z,16.73
2023-01-01T15:30:27.084Z,17.33
2023-01-01T15:32:56.789Z,20.50
2023-01-01T15:35:32.708Z,16.10
2023-01-01T15:38:11.791Z,16.13
2023-01-01T15:40:42.057Z,15.77
2023-01-01T15:43:23.779Z,19.23
2023-01-01T15:45:58.018Z,16.77
2023-01-01T15:48:33.702Z,18.15
2023-01-01T15:51:18.734Z,19.55
2023-01-01T15:53:57.041Z,20.58
2023-01-01T15:56:29.753Z,22.88
2023-01-01T15:59:09.227Z,24.77
2023-01-01T16:01:41.821Z,28.67
2023-01-01T16:04:23.957Z,24.23
2023-01-01T16:06:59.491Z,24.98
2023-01-01T16:09:28.691Z,20.45
2023-01-01T16:11:59.523Z,24.75
2023-01-01T16:14:30.156Z,27.85
2023-01-01T16:17:02.077Z,27.40
2023-01-01T16:19:33.259Z,23.60
2023-01-01T16:22:02.438Z,24.48
2023-01-01T16:24:36.802Z,27.15
2023-01-01T16:27:05.928Z,26.27
2023-01-01T16:29:36.583Z,30.10
2023-01-01T16:32:06.632Z,27.00
2023-01-01T16:34:37.624Z,28.17
2023-01-01T16:37:06.677Z,28.00
2023-01-01T16:39:36.015Z,24.02
2023-01-01T16:42:05.597Z,22.48
2023-01-01T16:44:38.846Z,27.50
2023-01-01T16:47:07.988Z,24.80
2023-01-01T16:49:37.310Z,23.75
2023-01-01T16:52:06.507Z,29.67
2023-01-01T16:54:36.271Z,26.90
2023-01-01T16:57:05.363Z,27.58
2023-01-01T16:59:34.573Z,30.80
2023-01-01T17:02:07.871Z,36.40
2023-01-01T17:04:37.603Z,33.83
2023-01-01T17:07:06.704Z,34.25
2023-01-01T17:09:35.978Z,33.20
2023-01-01T17:12:05.680Z,30.88
2023-01-01T17:14:34.890Z,28.65
2023-01-01T17:17:05.352Z,26.25
2023-01-01T17:19:34.669Z,34.38
2023-01-01T17:22:05.568Z,22.10
2023-01-01T17:24:34.796Z,29.65
2023-01-01T17:27:04.071Z,34.00
2023-01-01T17:29:33.267Z,33.08
2023-01-01T17:32:02.412Z,38.70
2023-01-01T17:34:32.867Z,35.85
2023-01-01T17:37:02.052Z,37.33
2023-01-01T17:39:31.373Z,35.25
2023-01-01T17:42:01.876Z,30.67
2023-01-01T17:44:31.189Z,32.78
2023-01-01T17:47:00.358Z,38.75
2023-01-01T17:49:29.400Z,39.38
2023-01-01T17:51:59.910Z,38.25
2023-01-01T17:54:29.330Z,35.55
2023-01-01T17:57:03.458Z,38.22
2023-01-01T17:59:32.615Z,37.80
2023-01-01T18:02:02.275Z,34.63
2023-01-01T18:04:31.891Z,26.38
2023-01-01T18:07:06.298Z,30.55
2023-01-01T18:09:38.223Z,29.83
2023-01-01T18:12:08.372Z,28.30
2023-01-01T18:14:37.514Z,32.90
2023-01-01T18:17:06.618Z,33.15
2023-01-01T18:19:37.410Z,33.22
2023-01-01T18:22:08.014Z,44.50
2023-01-01T18:24:37.292Z,45.88
2023-01-01T18:27:08.267Z,43.08
2023-01-01T18:29:37.464Z,33.78
2023-01-01T18:32:06.594Z,41.58
2023-01-01T18:34:35.777Z,37.47
2023-01-01T18:37:05.585Z,36.72
2023-01-01T18:39:41.731Z,37.83
2023-01-01T18:42:39.975Z,40.83
2023-01-01T18:45:18.118Z,31.73
2023-01-01T18:47:47.591Z,31.10
2023-01-01T18:50:24.009Z,42.53
2023-01-01T18:53:02.455Z,41.53
2023-01-01T18:55:33.634Z,42.00
2023-01-01T18:58:17.610Z,45.38
2023-01-01T19:00:49.099Z,42.55
2023-01-01T19:03:28.334Z,43.28
2023-01-01T19:05:59.897Z,42.53
2023-01-01T19:08:31.308Z,42.42
2023-01-01T19:11:04.285Z,36.80
2023-01-01T19:13:35.341Z,42.97
2023-01-01T19:16:23.941Z,47.75
2023-01-01T19:18:55.001Z,47.90
2023-01-01T19:21:28.598Z,49.08
2023-01-01T19:24:02.889Z,47.75
2023-01-01T19:26:39.105Z,45.50
2023-01-01T19:29:17.465Z,52.72
2023-01-01T19:31:55.188Z,49.45
2023-01-01T19:34:26.272Z,51.58
2023-01-01T19:36:56.023Z,49.72
2023-01-01T19:39:25.851Z,63.85
2023-01-01T19:42:03.804Z,71.63
2023-01-01T19:44:34.563Z,76.30
2023-01-01T19:47:04.914Z,61.97
2023-01-01T19:49:34.676Z,55.45
2023-01-01T19:52:04.908Z,57.42
2023-01-01T19:54:34.185Z,48.22
2023-01-01T19:57:04.893Z,57.47
2023-01-01T19:59:34.349Z,58.88
2023-01-01T20:02:43.516Z,58.28
2023-01-01T20:04:53.106Z,64.03
2023-01-01T20:07:22.411Z,52.70
2023-01-01T20:09:51.697Z,62.13
2023-01-01T20:12:22.437Z,56.83
2023-01-01T20:14:53.471Z,59.03
2023-01-01T20:17:22.702Z,58.03
2023-01-01T20:19:54.201Z,51.30
2023-01-01T20:22:24.134Z,43.35
2023-01-01T20:24:53.838Z,39.88
2023-01-01T20:27:28.327Z,36.78
2023-01-01T20:29:59.566Z,34.70
2023-01-01T20:32:30.948Z,39.33
2023-01-01T20:35:01.012Z,42.15
2023-01-01T20:37:40.311Z,45.58
2023-01-01T20:40:14.331Z,52.05
2023-01-01T20:42:45.959Z,44.58
2023-01-01T20:45:15.591Z,46.25
2023-01-01T20:47:47.156Z,49.78
2023-01-01T20:50:17.455Z,51.83
2023-01-01T20:52:48.006Z,51.80
2023-01-01T20:55:17.813Z,50.90
2023-01-01T20:57:51.894Z,52.50
2023-01-01T21:00:21.268Z,56.70
2023-01-01T21:02:50.984Z,59.42
2023-01-01T21:05:20.442Z,50.67
2023-01-01T21:07:55.415Z,54.42
2023-01-01T21:10:25.070Z,48.15
2023-01-01T21:12:56.335Z,45.28
2023-01-01T21:15:26.765Z,43.63
2023-01-01T21:18:00.146Z,39.67
2023-01-01T21:20:36.578Z,39.30
2023-01-01T21:23:14.539Z,36.63
2023-01-01T21:25:51.688Z,40.38
2023-01-01T21:28:35.855Z,34.78
2023-01-01T21:31:12.901Z,34.20
2023-01-01T21:33:43.571Z,34.88
2023-01-01T21:36:19.096Z,36.17
2023-01-01T21:38:50.047Z,35.22
2023-01-01T21:41:23.880Z,29.70
2023-01-01T21:43:57.934Z,42.42
2023-01-01T21:46:36.381Z,34.72
2023-01-01T21:49:16.278Z,31.45
2023-01-01T21:51:51.414Z,34.28
2023-01-01T21:54:26.486Z,32.80
2023-01-01T21:56:59.699Z,34.08
2023-01-01T21:59:43.134Z,35.47
2023-01-01T22:02:37.697Z,43.88
2023-01-01T22:05:30.575Z,57.40
2023-01-01T22:08:00.215Z,52.30
2023-01-01T22:10:35.664Z,51.03
2023-01-01T22:13:14.674Z,51.20
2023-01-01T22:15:46.570Z,48.80
2023-01-01T22:18:37.182Z,44.10
2023-01-01T22:21:06.634Z,63.35
2023-01-01T22:23:41.169Z,71.28
2023-01-01T22:26:19.042Z,71.63
2023-01-01T22:28:50.839Z,48.63
2023-01-01T22:31:25.459Z,52.45
2023-01-01T22:34:00.291Z,55.03
2023-01-01T22:36:32.123Z,63.03
2023-01-01T22:39:05.139Z,59.22
2023-01-01T22:41:34.164Z,60.33
2023-01-01T22:44:05.434Z,57.88
2023-01-01T22:46:40.160Z,42.70
2023-01-01T22:49:23.516Z,50.83
2023-01-01T22:51:56.319Z,60.30
2023-01-01T22:54:25.847Z,47.97
2023-01-01T22:56:54.924Z,56.72
2023-01-01T22:59:24.053Z,41.95
2023-01-01T23:01:54.664Z,42.03
2023-01-01T23:04:23.866Z,49.55
2023-01-01T23:06:53.490Z,42.05
2023-01-01T23:09:24.135Z,40.85
2023-01-01T23:11:55.210Z,38.03
2023-01-01T23:14:42.827Z,39.13
2023-01-01T23:17:13.353Z,37.55
2023-01-01T23:19:42.445Z,34.90
2023-01-01T23:22:11.684Z,49.65
2023-01-01T23:24:41.057Z,50.78
2023-01-01T23:27:10.844Z,45.25
2023-01-01T23:29:40.228Z,45.35
2023-01-01T23:32:09.359Z,44.20
2023-01-01T23:34:40.522Z,45.78
2023-01-01T23:37:10.493Z,51.30
2023-01-01T23:39:39.669Z,47.85
2023-01-01T23:42:08.780Z,53.40
2023-01-01T23:44:38.154Z,52.17
2023-01-01T23:47:07.479Z,55.95
2023-01-01T23:49:37.131Z,51.28
2023-01-01T23:52:07.982Z,60.85
2023-01-01T23:54:39.065Z,48.55
2023-01-01T23:57:08.565Z,49.75
2023-01-01T23:59:37.661Z,50.80
